Time;durP1;ratioP1;P1;durP2;ratioP2;P2;SDS_P1;SDS_P2;PMS_P1;PMS_P2;Temp;Humidity;BMP_temperature;BMP_pressure;BME280_temperature;BME280_humidity;BME280_pressure;Samples;Min_cycle;Max_cycle;Signal;HPM_P1;HPM_P2
2022/11/29 00:02:05;;;;;;;36.42;22.77;;;;;;;;;;5066404;28;20057;-80
2022/11/29 00:04:31;;;;;;;31.13;22.08;;;;;;;;;;5070692;28;20037;-80
2022/11/29 00:06:57;;;;;;;33.50;21.98;;;;;;;;;;5069486;28;20032;-80
2022/11/29 00:09:23;;;;;;;31.13;21.50;;;;;;;;;;5070865;28;20543;-75
2022/11/29 00:14:33;;;;;;;31.25;21.85;;;;;;;;;;5065806;28;20167;-80
2022/11/29 00:17:00;;;;;;;33.80;21.55;;;;;;;;;;5072330;28;20443;-79
2022/11/29 00:19:26;;;;;;;34.63;22.48;;;;;;;;;;5071309;28;20428;-79
2022/11/29 00:21:53;;;;;;;31.40;21.90;;;;;;;;;;5072339;28;20459;-79
2022/11/29 00:24:19;;;;;;;35.42;21.30;;;;;;;;;;5073240;28;20471;-75
2022/11/29 00:26:45;;;;;;;32.22;20.95;;;;;;;;;;5068284;28;20489;-78
2022/11/29 00:29:11;;;;;;;31.55;19.75;;;;;;;;;;5073432;28;20070;-80
2022/11/29 00:31:37;;;;;;;30.20;20.02;;;;;;;;;;5072449;28;20082;-80
2022/11/29 00:34:05;;;;;;;28.90;19.85;;;;;;;;;;5071152;28;20080;-80
2022/11/29 00:36:32;;;;;;;27.70;20.02;;;;;;;;;;5072600;28;20379;-78
2022/11/29 00:38:58;;;;;;;29.00;19.48;;;;;;;;;;5070598;28;20025;-79
2022/11/29 00:41:24;;;;;;;29.88;19.15;;;;;;;;;;5064912;28;20040;-78
2022/11/29 00:43:50;;;;;;;28.35;19.17;;;;;;;;;;5072140;28;20028;-79
2022/11/29 00:46:16;;;;;;;31.90;20.25;;;;;;;;;;5072682;28;20028;-79
2022/11/29 00:48:42;;;;;;;26.92;19.98;;;;;;;;;;5072399;28;20029;-78
2022/11/29 00:51:08;;;;;;;25.63;18.42;;;;;;;;;;5066967;28;20036;-79
2022/11/29 00:53:35;;;;;;;25.55;18.50;;;;;;;;;;5069382;28;20064;-79
2022/11/29 00:56:01;;;;;;;27.05;18.70;;;;;;;;;;5072042;27;20063;-78
2022/11/29 00:58:27;;;;;;;26.92;18.38;;;;;;;;;;5070479;28;20497;-78
2022/11/29 01:00:53;;;;;;;25.13;18.98;;;;;;;;;;5072738;28;20048;-78
2022/11/29 01:03:20;;;;;;;24.90;19.27;;;;;;;;;;5072135;28;20021;-74
2022/11/29 01:05:46;;;;;;;27.85;19.05;;;;;;;;;;5069483;28;20063;-78
2022/11/29 01:08:13;;;;;;;28.25;18.63;;;;;;;;;;5070576;28;20025;-77
2022/11/29 01:10:39;;;;;;;25.02;18.38;;;;;;;;;;5070974;28;20081;-77
2022/11/29 01:13:05;;;;;;;24.15;17.83;;;;;;;;;;5070864;28;20071;-77
2022/11/29 01:15:31;;;;;;;25.52;18.13;;;;;;;;;;5071115;28;20111;-78
2022/11/29 01:17:57;;;;;;;24.90;18.00;;;;;;;;;;5071976;28;20032;-78
2022/11/29 01:20:23;;;;;;;25.80;17.55;;;;;;;;;;5069509;28;20025;-74
2022/11/29 01:22:50;;;;;;;22.67;16.65;;;;;;;;;;5072165;28;20020;-78
2022/11/29 01:25:16;;;;;;;24.77;17.75;;;;;;;;;;5047590;28;20442;-78
2022/11/29 01:27:42;;;;;;;25.98;18.33;;;;;;;;;;5050002;28;20683;-78
2022/11/29 01:30:08;;;;;;;26.33;18.80;;;;;;;;;;5070648;28;20115;-78
2022/11/29 01:32:37;;;;;;;25.52;18.38;;;;;;;;;;5070650;28;20024;-76
2022/11/29 01:35:04;;;;;;;25.58;17.42;;;;;;;;;;5071478;28;20028;-77
2022/11/29 01:37:30;;;;;;;25.27;18.13;;;;;;;;;;5070480;28;20033;-76
2022/11/29 01:39:56;;;;;;;27.77;18.38;;;;;;;;;;5070035;28;20036;-78
2022/11/29 01:42:22;;;;;;;26.63;18.15;;;;;;;;;;5070455;28;20032;-73
2022/11/29 01:45:02;;;;;;;24.65;16.95;;;;;;;;;;5071265;28;20033;-76
2022/11/29 01:47:29;;;;;;;23.75;16.63;;;;;;;;;;5064160;28;20029;-78
2022/11/29 01:49:55;;;;;;;24.00;18.52;;;;;;;;;;5069958;28;20475;-79
2022/11/29 01:52:27;;;;;;;27.02;18.38;;;;;;;;;;5070989;28;20119;-73
2022/11/29 01:54:56;;;;;;;25.50;17.75;;;;;;;;;;5060545;28;20033;-78
2022/11/29 01:57:22;;;;;;;25.83;16.70;;;;;;;;;;5057031;28;20059;-74
2022/11/29 01:59:50;;;;;;;25.55;18.85;;;;;;;;;;5066061;28;20467;-77
2022/11/29 02:02:19;;;;;;;22.58;16.60;;;;;;;;;;5070762;28;20028;-77
2022/11/29 02:04:46;;;;;;;23.42;16.95;;;;;;;;;;5069772;28;20495;-78
2022/11/29 02:07:12;;;;;;;22.40;17.40;;;;;;;;;;5070199;28;20029;-78
2022/11/29 02:09:38;;;;;;;26.88;18.00;;;;;;;;;;5063050;28;20471;-78
2022/11/29 02:12:07;;;;;;;24.73;17.15;;;;;;;;;;5070460;28;20031;-79
2022/11/29 02:14:46;;;;;;;21.33;16.05;;;;;;;;;;5064484;28;20040;-78
2022/11/29 02:17:30;;;;;;;23.75;16.75;;;;;;;;;;5050337;28;20028;-77
2022/11/29 02:20:05;;;;;;;21.95;16.15;;;;;;;;;;5068886;28;20025;-78
2022/11/29 02:22:40;;;;;;;23.85;15.48;;;;;;;;;;5067506;28;20025;-77
2022/11/29 02:25:05;;;;;;;21.45;16.13;;;;;;;;;;5043771;28;20048;-77
2022/11/29 02:27:48;;;;;;;25.95;16.38;;;;;;;;;;5062945;28;20306;-76
2022/11/29 02:30:29;;;;;;;21.80;16.20;;;;;;;;;;5062811;28;20036;-78
2022/11/29 02:32:58;;;;;;;24.30;16.02;;;;;;;;;;5066738;28;20060;-77
2022/11/29 02:35:24;;;;;;;22.75;15.13;;;;;;;;;;5070035;28;20549;-74
2022/11/29 02:38:04;;;;;;;23.73;16.90;;;;;;;;;;5069355;28;20033;-77
2022/11/29 02:40:30;;;;;;;;;;;;;;;;;;5067584;28;20046;-78
2022/11/29 02:43:19;;;;;;;28.77;16.25;;;;;;;;;;5061636;28;20003;-78
2022/11/29 02:46:03;;;;;;;22.40;14.85;;;;;;;;;;5065723;28;20854;-78
2022/11/29 02:48:37;;;;;;;21.05;15.32;;;;;;;;;;5068695;28;20025;-78
2022/11/29 02:51:35;;;;;;;22.42;16.55;;;;;;;;;;5069116;28;20051;-76
2022/11/29 02:54:10;;;;;;;25.05;16.60;;;;;;;;;;5038815;28;20033;-78
2022/11/29 02:56:54;;;;;;;21.45;14.75;;;;;;;;;;5055504;28;20483;-77
2022/11/29 02:59:20;;;;;;;22.23;16.20;;;;;;;;;;5048860;28;20021;-73
2022/11/29 03:01:46;;;;;;;19.55;14.35;;;;;;;;;;5041189;28;20036;-77
2022/11/29 03:04:33;;;;;;;23.35;15.65;;;;;;;;;;5050737;28;20029;-77
2022/11/29 03:06:59;;;;;;;19.85;14.45;;;;;;;;;;5037950;28;20040;-78
2022/11/29 03:09:32;;;;;;;17.80;13.30;;;;;;;;;;5048030;28;20029;-77
2022/11/29 03:12:16;;;;;;;17.70;13.48;;;;;;;;;;5048378;28;20036;-77
2022/11/29 03:14:53;;;;;;;15.30;12.20;;;;;;;;;;5049422;28;20041;-77
2022/11/29 03:17:25;;;;;;;20.15;12.85;;;;;;;;;;5048644;28;20036;-77
2022/11/29 03:20:05;;;;;;;18.48;14.00;;;;;;;;;;5046379;28;20020;-77
2022/11/29 03:22:34;;;;;;;18.85;13.63;;;;;;;;;;5044251;28;20029;-78
2022/11/29 03:25:22;;;;;;;21.02;14.98;;;;;;;;;;5046911;28;20025;-78
2022/11/29 03:27:55;;;;;;;19.73;14.00;;;;;;;;;;5045064;28;20044;-76
2022/11/29 03:30:21;;;;;;;21.80;14.00;;;;;;;;;;5035245;28;20070;-73
2022/11/29 03:32:53;;;;;;;18.08;13.32;;;;;;;;;;5048530;28;20040;-78
2022/11/29 03:35:19;;;;;;;19.58;14.25;;;;;;;;;;5050318;28;20040;-77
2022/11/29 03:38:05;;;;;;;17.58;13.07;;;;;;;;;;5046672;28;20025;-76
2022/11/29 03:40:51;;;;;;;18.15;13.23;;;;;;;;;;5043816;28;20041;-77
2022/11/29 03:43:27;;;;;;;18.48;12.77;;;;;;;;;;5048388;28;20348;-78
2022/11/29 03:45:58;;;;;;;17.55;12.95;;;;;;;;;;5048845;28;20077;-77
2022/11/29 03:48:29;;;;;;;20.33;14.00;;;;;;;;;;5049632;28;20065;-73
2022/11/29 03:50:59;;;;;;;16.80;12.05;;;;;;;;;;5046006;28;20037;-77
2022/11/29 03:53:37;;;;;;;17.55;12.85;;;;;;;;;;5044465;28;20032;-76
2022/11/29 03:56:20;;;;;;;18.15;12.45;;;;;;;;;;5058586;28;20186;-77
2022/11/29 03:58:46;;;;;;;17.48;12.15;;;;;;;;;;5070205;28;20107;-78
2022/11/29 04:01:15;;;;;;;18.73;13.25;;;;;;;;;;5071594;28;20547;-77
2022/11/29 04:03:50;;;;;;;17.60;12.60;;;;;;;;;;5072695;28;20267;-76
2022/11/29 04:06:19;;;;;;;16.92;12.48;;;;;;;;;;5070761;28;20052;-78
2022/11/29 04:08:48;;;;;;;15.27;12.13;;;;;;;;;;5072843;28;20039;-78
2022/11/29 04:11:17;;;;;;;15.43;11.57;;;;;;;;;;5071498;28;20032;-77
2022/11/29 04:14:02;;;;;;;16.73;13.23;;;;;;;;;;5072230;28;20534;-78
2022/11/29 04:16:47;;;;;;;17.73;12.77;;;;;;;;;;5068967;28;20112;-77
2022/11/29 04:19:18;;;;;;;16.02;12.18;;;;;;;;;;5069907;28;20037;-77
2022/11/29 04:21:58;;;;;;;15.02;12.30;;;;;;;;;;5065499;28;20104;-78
2022/11/29 04:24:30;;;;;;;17.58;12.95;;;;;;;;;;5063321;28;20512;-73
2022/11/29 04:27:15;;;;;;;15.10;12.32;;;;;;;;;;5072820;28;20057;-78
2022/11/29 04:29:53;;;;;;;17.67;12.73;;;;;;;;;;5067375;28;20166;-78
2022/11/29 04:32:38;;;;;;;15.57;12.40;;;;;;;;;;5071695;28;20035;-78
2022/11/29 04:35:10;;;;;;;16.13;12.65;;;;;;;;;;5068126;28;20168;-78
2022/11/29 04:37:36;;;;;;;16.50;12.32;;;;;;;;;;5071861;28;20051;-78
2022/11/29 04:40:20;;;;;;;16.40;12.35;;;;;;;;;;5071078;28;20486;-77
2022/11/29 04:42:49;;;;;;;15.63;12.48;;;;;;;;;;5071196;28;20126;-79
2022/11/29 04:45:34;;;;;;;19.02;12.20;;;;;;;;;;5071453;28;20098;-76
2022/11/29 04:48:06;;;;;;;14.48;11.75;;;;;;;;;;5061271;28;20079;-78
2022/11/29 04:50:53;;;;;;;16.67;12.20;;;;;;;;;;5068238;28;20190;-78
2022/11/29 04:53:28;;;;;;;15.77;12.43;;;;;;;;;;5070027;28;20071;-77
2022/11/29 04:56:24;;;;;;;17.17;12.80;;;;;;;;;;5071310;28;20533;-79
2022/11/29 04:59:00;;;;;;;17.23;13.00;;;;;;;;;;4993932;28;20048;-78
2022/11/29 05:01:34;;;;;;;18.67;13.35;;;;;;;;;;5067596;28;20020;-77
2022/11/29 05:04:13;;;;;;;19.08;13.30;;;;;;;;;;5070865;28;20113;-80
2022/11/29 05:06:39;;;;;;;20.75;13.93;;;;;;;;;;5064600;28;20033;-79
2022/11/29 05:09:11;;;;;;;20.38;14.95;;;;;;;;;;5073581;28;20036;-79
2022/11/29 05:12:06;;;;;;;21.77;14.88;;;;;;;;;;5070354;28;20025;-78
2022/11/29 05:14:35;;;;;;;18.23;13.93;;;;;;;;;;4991327;28;20099;-78
2022/11/29 05:17:13;;;;;;;15.73;12.32;;;;;;;;;;5065906;28;20075;-79
2022/11/29 05:19:46;;;;;;;15.25;10.52;;;;;;;;;;5068441;28;20063;-79
2022/11/29 05:22:25;;;;;;;13.57;9.13;;;;;;;;;;5060251;28;20430;-76
2022/11/29 05:25:10;;;;;;;12.27;9.10;;;;;;;;;;5070049;28;20033;-77
2022/11/29 05:27:42;;;;;;;9.52;8.20;;;;;;;;;;5063217;28;20021;-76
2022/11/29 05:30:13;;;;;;;11.05;8.02;;;;;;;;;;5067109;28;20400;-78
2022/11/29 05:32:58;;;;;;;8.85;7.03;;;;;;;;;;5069512;28;20032;-77
2022/11/29 05:35:32;;;;;;;8.95;6.50;;;;;;;;;;5071099;28;20107;-73
2022/11/29 05:38:14;;;;;;;8.88;6.38;;;;;;;;;;5072062;28;20091;-78
2022/11/29 05:40:59;;;;;;;9.90;6.75;;;;;;;;;;5070690;28;20036;-80
2022/11/29 05:43:34;;;;;;;8.25;6.72;;;;;;;;;;5069510;28;20108;-79
2022/11/29 05:46:18;;;;;;;11.55;7.22;;;;;;;;;;5060235;28;20054;-80
2022/11/29 05:48:58;;;;;;;10.43;6.30;;;;;;;;;;5071551;28;20024;-79
2022/11/29 05:51:37;;;;;;;8.27;6.47;;;;;;;;;;5069089;28;20025;-77
2022/11/29 05:54:12;;;;;;;7.93;6.60;;;;;;;;;;5068676;28;20055;-79
2022/11/29 05:56:44;;;;;;;9.63;7.07;;;;;;;;;;5067499;28;20051;-78
2022/11/29 05:59:16;;;;;;;8.48;6.80;;;;;;;;;;5066303;28;20036;-79
2022/11/29 06:01:45;;;;;;;7.25;6.30;;;;;;;;;;5058533;28;20128;-78
2022/11/29 06:04:30;;;;;;;8.93;6.20;;;;;;;;;;5068510;28;20032;-78
2022/11/29 06:06:59;;;;;;;7.82;6.95;;;;;;;;;;5067129;28;20031;-79
2022/11/29 06:09:29;;;;;;;8.77;6.93;;;;;;;;;;5070148;28;20049;-78
2022/11/29 06:11:56;;;;;;;;;;;;;;;;;;5069368;28;20036;-79
2022/11/29 06:14:31;;;;;;;7.97;6.25;;;;;;;;;;5060665;28;19958;-73
2022/11/29 06:17:09;;;;;;;7.90;6.22;;;;;;;;;;5069248;28;20036;-80
2022/11/29 06:19:36;;;;;;;9.95;6.07;;;;;;;;;;5064900;28;20036;-77
2022/11/29 06:22:23;;;;;;;6.88;6.10;;;;;;;;;;5063189;28;20598;-78
2022/11/29 06:25:00;;;;;;;7.70;6.20;;;;;;;;;;5070547;28;20024;-78
2022/11/29 06:27:28;;;;;;;9.30;6.60;;;;;;;;;;5065897;28;20028;-78
2022/11/29 06:29:54;;;;;;;7.78;6.97;;;;;;;;;;5061322;28;21345;-78
2022/11/29 06:32:39;;;;;;;8.18;6.68;;;;;;;;;;5066083;28;20091;-74
2022/11/29 06:35:21;;;;;;;10.60;7.35;;;;;;;;;;5063658;28;20020;-79
2022/11/29 06:37:49;;;;;;;6.90;6.13;;;;;;;;;;5068029;28;20102;-78
2022/11/29 06:40:16;;;;;;;6.97;6.28;;;;;;;;;;5071380;28;20463;-78
2022/11/29 06:42:42;;;;;;;10.40;7.13;;;;;;;;;;5070385;28;20225;-79
2022/11/29 06:45:12;;;;;;;9.52;7.25;;;;;;;;;;5053212;28;20028;-78
2022/11/29 06:48:06;;;;;;;10.48;7.05;;;;;;;;;;5071944;28;20135;-76
2022/11/29 06:50:50;;;;;;;9.80;7.10;;;;;;;;;;5069622;28;20023;-78
2022/11/29 06:53:24;;;;;;;11.40;7.38;;;;;;;;;;5065453;28;20488;-77
2022/11/29 06:55:54;;;;;;;10.00;7.70;;;;;;;;;;5066479;28;20143;-80
2022/11/29 06:58:19;;;;;;;10.45;8.05;;;;;;;;;;5073040;28;20067;-79
2022/11/29 07:00:56;;;;;;;9.50;8.13;;;;;;;;;;5069963;28;20052;-76
2022/11/29 07:03:34;;;;;;;9.90;8.15;;;;;;;;;;5071322;28;20429;-75
2022/11/29 07:06:04;;;;;;;11.40;9.20;;;;;;;;;;5067010;28;20024;-80
2022/11/29 07:08:30;;;;;;;11.25;8.27;;;;;;;;;;5071163;28;20023;-80
2022/11/29 07:10:58;;;;;;;13.07;9.23;;;;;;;;;;5071591;28;20032;-83
2022/11/29 07:13:24;;;;;;;14.00;10.50;;;;;;;;;;5059262;28;20484;-76
2022/11/29 07:15:59;;;;;;;11.43;9.73;;;;;;;;;;5069803;28;20032;-81
2022/11/29 07:18:37;;;;;;;11.10;8.60;;;;;;;;;;5069282;28;20021;-75
2022/11/29 07:21:16;;;;;;;11.57;9.00;;;;;;;;;;5071846;28;20044;-80
2022/11/29 07:23:45;;;;;;;13.40;9.75;;;;;;;;;;5083623;28;20024;-80
2022/11/29 07:26:11;;;;;;;11.65;9.73;;;;;;;;;;5082214;28;20375;-80
2022/11/29 07:28:46;;;;;;;11.30;8.63;;;;;;;;;;5075624;28;20029;-80
2022/11/29 07:31:26;;;;;;;11.35;9.05;;;;;;;;;;5069575;28;20059;-81
2022/11/29 07:33:52;;;;;;;;;;;;;;;;;;5061581;28;20021;-81
2022/11/29 07:36:25;;;;;;;9.93;8.23;;;;;;;;;;5082324;28;19918;-80
2022/11/29 07:39:09;;;;;;;11.13;8.35;;;;;;;;;;5066129;28;20028;-80
2022/11/29 07:41:42;;;;;;;11.43;8.18;;;;;;;;;;5074276;28;20068;-80
2022/11/29 07:44:12;;;;;;;10.05;8.23;;;;;;;;;;5067361;28;20017;-79
2022/11/29 07:46:38;;;;;;;11.35;8.18;;;;;;;;;;5074282;28;20534;-80
2022/11/29 07:49:05;;;;;;;10.50;7.57;;;;;;;;;;5074613;28;20071;-80
2022/11/29 07:51:31;;;;;;;8.75;7.03;;;;;;;;;;5073832;28;20103;-80
2022/11/29 07:53:57;;;;;;;9.48;8.15;;;;;;;;;;5075874;28;20061;-78
2022/11/29 07:56:23;;;;;;;11.05;7.25;;;;;;;;;;5073422;28;20407;-76
2022/11/29 07:58:49;;;;;;;8.13;7.25;;;;;;;;;;5086117;28;20031;-83
2022/11/29 08:01:15;;;;;;;8.80;7.43;;;;;;;;;;5079430;28;20023;-81
2022/11/29 08:03:41;;;;;;;9.77;7.40;;;;;;;;;;5078156;28;20024;-81
2022/11/29 08:06:07;;;;;;;9.52;7.65;;;;;;;;;;5075852;28;20092;-82
2022/11/29 08:08:33;;;;;;;8.77;6.25;;;;;;;;;;5070287;28;20383;-81
2022/11/29 08:10:59;;;;;;;7.88;7.05;;;;;;;;;;5075654;28;20081;-82
2022/11/29 08:13:25;;;;;;;8.63;6.45;;;;;;;;;;5068163;28;20021;-81
2022/11/29 08:15:51;;;;;;;10.25;6.82;;;;;;;;;;5081165;28;20025;-82
2022/11/29 08:18:17;;;;;;;6.93;6.22;;;;;;;;;;5074919;28;20028;-81
2022/11/29 08:20:45;;;;;;;8.18;6.22;;;;;;;;;;5077474;28;20024;-83
2022/11/29 08:23:11;;;;;;;6.90;6.20;;;;;;;;;;5079814;28;20031;-82
2022/11/29 08:25:38;;;;;;;7.10;6.15;;;;;;;;;;5074162;28;20024;-81
2022/11/29 08:28:04;;;;;;;7.38;5.90;;;;;;;;;;5063937;28;20483;-82
2022/11/29 08:30:30;;;;;;;5.95;5.32;;;;;;;;;;5072852;28;20023;-82
2022/11/29 08:32:56;;;;;;;6.35;5.72;;;;;;;;;;5068132;28;20027;-81
2022/11/29 08:35:22;;;;;;;6.13;5.55;;;;;;;;;;5068714;28;20025;-76
2022/11/29 08:37:49;;;;;;;8.75;6.32;;;;;;;;;;5067159;28;20108;-83
2022/11/29 08:40:15;;;;;;;9.90;6.65;;;;;;;;;;5078156;28;20023;-81
2022/11/29 08:42:41;;;;;;;10.98;7.20;;;;;;;;;;5076222;28;20100;-83
2022/11/29 08:45:08;;;;;;;7.20;5.95;;;;;;;;;;5065923;28;20025;-82
2022/11/29 08:47:37;;;;;;;7.65;6.20;;;;;;;;;;5068772;28;20070;-80
2022/11/29 08:50:09;;;;;;;7.93;6.82;;;;;;;;;;5069564;28;20016;-83
2022/11/29 08:55:22;;;;;;;7.97;6.63;;;;;;;;;;5071422;28;20587;-76
2022/11/29 08:57:49;;;;;;;8.95;7.32;;;;;;;;;;5076309;28;20021;-82
2022/11/29 09:00:15;;;;;;;10.30;7.53;;;;;;;;;;5076344;28;20029;-82
2022/11/29 09:02:41;;;;;;;7.85;6.43;;;;;;;;;;5075041;28;20140;-83
2022/11/29 09:05:08;;;;;;;7.82;6.53;;;;;;;;;;5059385;28;20478;-82
2022/11/29 09:07:34;;;;;;;8.88;7.30;;;;;;;;;;5073720;28;20043;-81
2022/11/29 09:10:04;;;;;;;8.00;6.03;;;;;;;;;;5077340;28;20024;-82
2022/11/29 09:12:31;;;;;;;10.20;6.93;;;;;;;;;;5076171;28;20428;-82
2022/11/29 09:14:57;;;;;;;7.07;6.38;;;;;;;;;;5075762;28;20032;-81
2022/11/29 09:17:23;;;;;;;8.10;7.28;;;;;;;;;;5075306;28;20024;-76
2022/11/29 09:19:49;;;;;;;9.38;6.63;;;;;;;;;;5071444;28;20032;-82
2022/11/29 09:22:15;;;;;;;8.20;6.70;;;;;;;;;;5067420;28;20436;-81
2022/11/29 09:24:41;;;;;;;10.70;6.57;;;;;;;;;;5065873;28;20738;-82
2022/11/29 09:27:07;;;;;;;8.00;6.03;;;;;;;;;;5058288;28;20048;-82
2022/11/29 09:29:33;;;;;;;9.25;6.68;;;;;;;;;;5080242;28;20029;-81
2022/11/29 09:31:59;;;;;;;9.05;7.13;;;;;;;;;;5082734;28;20033;-82
2022/11/29 09:34:25;;;;;;;12.40;7.10;;;;;;;;;;5083648;28;20048;-76
2022/11/29 09:36:51;;;;;;;9.13;7.18;;;;;;;;;;5082837;28;20031;-78
2022/11/29 09:39:17;;;;;;;12.18;7.70;;;;;;;;;;5079192;28;20502;-82
2022/11/29 09:41:46;;;;;;;9.25;7.70;;;;;;;;;;5082263;28;20661;-81
2022/11/29 09:44:18;;;;;;;11.00;8.82;;;;;;;;;;5080965;28;20025;-82
2022/11/29 09:55:54;;;;;;;;;;;;;;;;;;5071913;28;20075;-82
2022/11/29 09:58:23;;;;;;;14.88;10.57;;;;;;;;;;5083260;28;19915;-77
2022/11/29 10:00:51;;;;;;;16.70;11.32;;;;;;;;;;5068004;28;20024;-80
2022/11/29 10:03:22;;;;;;;16.95;11.98;;;;;;;;;;5083648;28;20108;-82
2022/11/29 10:05:51;;;;;;;17.55;11.65;;;;;;;;;;5077646;28;20031;-80
2022/11/29 10:08:22;;;;;;;20.13;12.77;;;;;;;;;;5069419;28;20025;-82
2022/11/29 10:10:49;;;;;;;23.25;13.35;;;;;;;;;;5076509;28;20070;-80
2022/11/29 10:13:16;;;;;;;23.48;13.90;;;;;;;;;;5062324;28;20036;-81
2022/11/29 10:15:43;;;;;;;27.08;14.93;;;;;;;;;;5081862;28;20024;-81
2022/11/29 10:18:28;;;;;;;25.30;15.85;;;;;;;;;;5081004;28;20024;-81
2022/11/29 10:20:59;;;;;;;35.05;18.55;;;;;;;;;;5074138;28;20070;-82
2022/11/29 10:23:35;;;;;;;35.53;18.83;;;;;;;;;;5081907;28;20082;-78
2022/11/29 10:26:06;;;;;;;30.80;17.48;;;;;;;;;;5074450;28;20514;-83
2022/11/29 10:28:33;;;;;;;34.05;19.33;;;;;;;;;;5082218;28;20025;-82
2022/11/29 10:31:14;;;;;;;39.38;19.85;;;;;;;;;;5074243;28;20013;-83
2022/11/29 10:33:41;;;;;;;36.17;20.55;;;;;;;;;;5078829;28;20092;-82
2022/11/29 10:36:16;;;;;;;40.25;21.23;;;;;;;;;;5072345;28;20023;-81
2022/11/29 10:38:43;;;;;;;34.17;18.98;;;;;;;;;;5072270;28;20024;-82
2022/11/29 10:41:13;;;;;;;30.88;18.08;;;;;;;;;;5073030;28;20096;-81
2022/11/29 10:43:40;;;;;;;27.60;17.77;;;;;;;;;;5063000;28;20471;-82
2022/11/29 10:46:10;;;;;;;26.60;15.75;;;;;;;;;;5065085;28;20024;-82
2022/11/29 10:48:36;;;;;;;25.73;15.00;;;;;;;;;;5070286;28;20104;-81
2022/11/29 10:51:02;;;;;;;21.48;14.05;;;;;;;;;;5074375;28;20448;-82
2022/11/29 10:53:35;;;;;;;18.98;12.55;;;;;;;;;;5071064;28;20052;-81
2022/11/29 10:56:21;;;;;;;22.42;13.50;;;;;;;;;;5069303;28;20087;-81
2022/11/29 10:59:04;;;;;;;19.90;12.00;;;;;;;;;;5071221;28;20060;-81
2022/11/29 11:01:31;;;;;;;19.05;12.30;;;;;;;;;;5057886;28;20029;-79
2022/11/29 11:03:59;;;;;;;20.35;13.23;;;;;;;;;;5060783;28;20009;-80
2022/11/29 11:06:42;;;;;;;21.67;12.60;;;;;;;;;;5073741;28;20099;-75
2022/11/29 11:09:14;;;;;;;17.88;11.98;;;;;;;;;;5067458;28;20016;-80
2022/11/29 11:11:44;;;;;;;19.65;12.80;;;;;;;;;;5073407;28;20021;-78
2022/11/29 11:14:28;;;;;;;17.25;11.02;;;;;;;;;;5058980;28;20020;-83
2022/11/29 11:16:54;;;;;;;18.67;11.73;;;;;;;;;;5076464;28;20043;-82
2022/11/29 11:19:26;;;;;;;15.77;10.95;;;;;;;;;;5070537;28;20035;-82
2022/11/29 11:21:53;;;;;;;18.75;11.88;;;;;;;;;;5073412;28;20021;-81
2022/11/29 11:24:39;;;;;;;15.02;10.85;;;;;;;;;;5065238;28;20060;-80
2022/11/29 11:27:05;;;;;;;18.40;12.15;;;;;;;;;;5080537;28;20021;-82
2022/11/29 11:29:38;;;;;;;16.25;10.75;;;;;;;;;;5078611;28;20051;-82
2022/11/29 11:32:07;;;;;;;16.55;11.45;;;;;;;;;;5062737;28;20065;-79
2022/11/29 11:34:37;;;;;;;16.67;12.20;;;;;;;;;;5075455;28;20379;-83
2022/11/29 11:37:15;;;;;;;20.63;12.55;;;;;;;;;;5069443;28;20120;-82
2022/11/29 11:39:42;;;;;;;19.73;12.80;;;;;;;;;;5071219;28;20028;-82
2022/11/29 11:44:57;;;;;;;23.13;14.50;;;;;;;;;;5067246;28;20060;-81
2022/11/29 11:47:27;;;;;;;24.73;15.88;;;;;;;;;;5074628;28;20017;-77
2022/11/29 11:49:53;;;;;;;22.10;14.50;;;;;;;;;;5075777;28;20039;-81
2022/11/29 11:52:21;;;;;;;21.20;14.98;;;;;;;;;;5075967;28;20100;-82
2022/11/29 11:54:53;;;;;;;20.80;15.23;;;;;;;;;;5053945;28;20029;-82
2022/11/29 11:57:20;;;;;;;19.45;14.25;;;;;;;;;;5075202;28;20052;-82
2022/11/29 11:59:49;;;;;;;22.55;14.60;;;;;;;;;;5074813;28;20056;-82
2022/11/29 12:02:25;;;;;;;19.00;13.43;;;;;;;;;;5076331;28;20020;-81
2022/11/29 12:04:52;;;;;;;17.83;12.57;;;;;;;;;;5076921;28;20025;-82
2022/11/29 12:07:21;;;;;;;15.70;11.77;;;;;;;;;;5076601;28;20035;-80
2022/11/29 12:09:49;;;;;;;15.80;12.25;;;;;;;;;;5080250;28;20024;-79
2022/11/29 12:12:15;;;;;;;13.80;10.70;;;;;;;;;;5064148;28;20098;-78
2022/11/29 12:14:47;;;;;;;14.13;11.02;;;;;;;;;;5072367;28;20119;-79
2022/11/29 12:17:26;;;;;;;13.07;10.15;;;;;;;;;;5073681;28;20379;-79
2022/11/29 12:19:58;;;;;;;11.90;9.43;;;;;;;;;;5069464;28;20033;-80
2022/11/29 12:22:27;;;;;;;10.63;8.52;;;;;;;;;;5077005;28;20043;-76
2022/11/29 12:24:56;;;;;;;9.70;8.50;;;;;;;;;;5068995;28;20036;-79
2022/11/29 12:27:22;;;;;;;11.35;8.27;;;;;;;;;;5076121;28;20087;-75
2022/11/29 12:29:48;;;;;;;10.45;8.40;;;;;;;;;;5075655;28;20463;-79
2022/11/29 12:32:14;;;;;;;11.10;8.50;;;;;;;;;;5076391;28;20020;-79
2022/11/29 12:34:43;;;;;;;10.55;8.52;;;;;;;;;;5074225;28;20016;-80
2022/11/29 12:37:28;;;;;;;11.57;9.07;;;;;;;;;;5077583;28;20029;-80
2022/11/29 12:39:57;;;;;;;12.98;9.40;;;;;;;;;;5078129;28;20056;-81
2022/11/29 12:42:29;;;;;;;10.30;9.00;;;;;;;;;;5065278;28;20029;-76
2022/11/29 12:45:04;;;;;;;11.20;9.57;;;;;;;;;;5075530;28;20112;-77
2022/11/29 12:47:39;;;;;;;11.20;8.82;;;;;;;;;;5070903;28;20032;-78
2022/11/29 12:50:24;;;;;;;12.15;9.85;;;;;;;;;;5066406;28;20020;-80
2022/11/29 12:52:55;;;;;;;11.55;9.23;;;;;;;;;;5077386;28;20039;-77
2022/11/29 12:55:28;;;;;;;12.02;9.20;;;;;;;;;;5074168;28;20052;-74
2022/11/29 12:58:01;;;;;;;13.13;9.30;;;;;;;;;;5060062;28;20067;-79
2022/11/29 13:00:31;;;;;;;15.30;10.48;;;;;;;;;;5075038;28;20025;-79
2022/11/29 13:03:15;;;;;;;13.35;10.45;;;;;;;;;;5074449;28;20048;-79
2022/11/29 13:05:59;;;;;;;14.43;11.18;;;;;;;;;;5076985;28;20064;-81
2022/11/29 13:08:38;;;;;;;15.20;11.05;;;;;;;;;;5076047;28;20474;-78
2022/11/29 13:11:24;;;;;;;15.13;10.82;;;;;;;;;;5077245;28;20378;-80
2022/11/29 13:13:50;;;;;;;14.45;11.93;;;;;;;;;;5079108;28;20059;-80
2022/11/29 13:16:16;;;;;;;14.75;11.80;;;;;;;;;;5075694;28;20025;-80
2022/11/29 13:18:52;;;;;;;17.27;11.95;;;;;;;;;;5069571;28;20136;-81
2022/11/29 13:21:21;;;;;;;18.00;12.40;;;;;;;;;;5073227;28;20040;-82
2022/11/29 13:23:59;;;;;;;14.93;10.95;;;;;;;;;;5077992;28;20017;-80
2022/11/29 13:26:26;;;;;;;13.20;10.10;;;;;;;;;;5069601;28;20056;-74
2022/11/29 13:28:53;;;;;;;12.35;9.75;;;;;;;;;;5077687;28;20039;-81
2022/11/29 13:31:21;;;;;;;15.13;10.43;;;;;;;;;;5077331;28;20075;-80
2022/11/29 13:33:47;;;;;;;14.30;9.57;;;;;;;;;;5078040;28;20036;-81
2022/11/29 13:36:16;;;;;;;12.40;10.10;;;;;;;;;;5073908;28;20055;-81
2022/11/29 13:38:45;;;;;;;12.25;10.38;;;;;;;;;;5076038;28;20627;-79
2022/11/29 13:41:36;;;;;;;12.32;10.68;;;;;;;;;;5076749;28;20025;-80
2022/11/29 13:44:12;;;;;;;16.27;11.10;;;;;;;;;;5056121;28;20028;-79
2022/11/29 13:46:38;;;;;;;14.50;11.45;;;;;;;;;;5083138;28;20052;-82
2022/11/29 13:49:04;;;;;;;12.50;10.38;;;;;;;;;;5074420;28;20021;-75
2022/11/29 13:51:36;;;;;;;12.02;10.38;;;;;;;;;;5083947;28;20075;-78
2022/11/29 13:54:06;;;;;;;13.07;11.57;;;;;;;;;;5072550;28;20088;-83
2022/11/29 13:56:44;;;;;;;12.07;10.00;;;;;;;;;;5076398;28;20112;-83
2022/11/29 13:59:30;;;;;;;12.65;11.10;;;;;;;;;;5084410;28;20087;-82
2022/11/29 14:01:57;;;;;;;16.10;11.90;;;;;;;;;;5080629;28;20040;-80
2022/11/29 14:04:33;;;;;;;15.93;11.82;;;;;;;;;;5083207;28;20467;-79
2022/11/29 14:07:13;;;;;;;15.63;11.73;;;;;;;;;;5058123;28;20024;-82
2022/11/29 14:09:39;;;;;;;14.32;11.70;;;;;;;;;;5073249;28;20107;-83
2022/11/29 14:12:19;;;;;;;11.70;9.63;;;;;;;;;;5083240;28;20024;-81
2022/11/29 14:14:50;;;;;;;13.88;10.80;;;;;;;;;;5072175;28;20385;-80
2022/11/29 14:17:28;;;;;;;12.75;10.57;;;;;;;;;;5074620;28;20112;-77
2022/11/29 14:20:14;;;;;;;14.15;11.27;;;;;;;;;;5077014;28;20059;-80
2022/11/29 14:23:00;;;;;;;12.75;10.90;;;;;;;;;;5071096;28;20154;-79
2022/11/29 14:25:26;;;;;;;13.77;11.32;;;;;;;;;;5082256;28;20064;-76
2022/11/29 14:27:54;;;;;;;11.80;10.00;;;;;;;;;;5081719;28;20025;-84
2022/11/29 14:30:31;;;;;;;12.57;9.82;;;;;;;;;;5079839;28;20025;-86
2022/11/29 14:32:57;;;;;;;12.88;10.07;;;;;;;;;;5081481;28;20021;-78
2022/11/29 14:35:30;;;;;;;11.77;9.77;;;;;;;;;;5083363;28;20029;-75
2022/11/29 14:38:17;;;;;;;11.23;9.40;;;;;;;;;;5088001;28;20028;-79
2022/11/29 14:40:48;;;;;;;12.35;9.73;;;;;;;;;;5075827;28;20051;-82
2022/11/29 14:43:35;;;;;;;12.10;9.95;;;;;;;;;;5069965;28;20072;-80
2022/11/29 14:46:23;;;;;;;12.70;9.85;;;;;;;;;;5072754;28;20028;-83
2022/11/29 14:48:55;;;;;;;12.48;9.55;;;;;;;;;;5069200;28;20021;-80
2022/11/29 14:51:23;;;;;;;12.93;10.43;;;;;;;;;;5075994;28;20441;-75
2022/11/29 14:53:51;;;;;;;12.95;11.02;;;;;;;;;;5072962;28;20024;-85
2022/11/29 14:56:34;;;;;;;11.75;10.23;;;;;;;;;;5068998;28;20063;-83
2022/11/29 14:59:18;;;;;;;11.35;9.68;;;;;;;;;;5063259;28;20488;-79
2022/11/29 15:01:54;;;;;;;11.70;9.88;;;;;;;;;;5074967;28;20265;-83
2022/11/29 15:04:25;;;;;;;11.65;9.68;;;;;;;;;;5079302;28;20056;-84
2022/11/29 15:06:56;;;;;;;12.13;10.43;;;;;;;;;;5080752;28;20063;-83
2022/11/29 15:09:24;;;;;;;10.55;9.02;;;;;;;;;;5061306;28;20028;-78
2022/11/29 15:11:51;;;;;;;11.27;9.93;;;;;;;;;;5081541;28;20036;-80